createdAt,value
2018-12-14T00:00:47.841Z,0.50
2018-12-14T00:03:16.609Z,0.50
2018-12-14T00:05:44.862Z,0.50
2018-12-14T00:08:13.173Z,0.50
2018-12-14T00:10:41.411Z,0.50
2018-12-14T00:13:43.932Z,0.50
2018-12-14T00:16:12.184Z,0.50
2018-12-14T00:18:40.546Z,0.50
2018-12-14T00:21:08.688Z,0.50
2018-12-14T00:23:36.880Z,0.50
2018-12-14T00:26:05.315Z,0.50
2018-12-14T00:28:33.823Z,0.50
2018-12-14T00:31:02.022Z,0.50
2018-12-14T00:33:30.301Z,0.50
2018-12-14T00:35:58.574Z,0.50
2018-12-14T00:38:28.074Z,0.50
2018-12-14T00:40:56.615Z,0.60
2018-12-14T00:43:24.993Z,0.50
2018-12-14T00:45:53.266Z,0.50
2018-12-14T00:48:21.703Z,0.50
2018-12-14T00:50:50.226Z,0.50
2018-12-14T00:53:18.420Z,0.50
2018-12-14T00:55:46.591Z,0.50
2018-12-14T00:58:14.975Z,0.50
2018-12-14T01:00:43.796Z,0.50
2018-12-14T01:03:11.935Z,0.50
2018-12-14T01:05:40.220Z,0.40
2018-12-14T01:08:08.583Z,0.50
2018-12-14T01:10:36.733Z,0.40
2018-12-14T01:13:04.924Z,0.40
2018-12-14T01:15:33.268Z,0.40
2018-12-14T01:18:01.393Z,0.40
2018-12-14T01:20:29.696Z,0.40
2018-12-14T01:22:57.865Z,0.40
2018-12-14T01:25:26.285Z,0.40
2018-12-14T01:27:54.441Z,0.40
2018-12-14T01:30:22.793Z,0.40
2018-12-14T01:32:51.383Z,0.40
2018-12-14T01:35:19.877Z,0.40
2018-12-14T01:37:48.137Z,0.40
2018-12-14T01:40:16.886Z,0.40
2018-12-14T01:42:45.271Z,0.40
2018-12-14T01:45:13.834Z,0.40
2018-12-14T01:47:42.208Z,0.40
2018-12-14T01:50:10.680Z,0.40
2018-12-14T01:52:39.482Z,0.40
2018-12-14T01:55:08.028Z,0.40
2018-12-14T01:57:36.649Z,0.30
2018-12-14T02:00:05.909Z,0.30
2018-12-14T02:02:34.049Z,0.30
2018-12-14T02:05:02.230Z,0.30
2018-12-14T02:07:30.319Z,0.30
2018-12-14T02:09:58.556Z,0.30
2018-12-14T02:12:26.964Z,0.30
2018-12-14T02:14:55.107Z,0.30
2018-12-14T02:17:23.312Z,0.30
2018-12-14T02:19:52.529Z,0.30
2018-12-14T02:22:21.004Z,0.30
2018-12-14T02:24:49.449Z,0.30
2018-12-14T02:27:17.935Z,0.30
2018-12-14T02:29:46.199Z,0.30
2018-12-14T02:32:14.522Z,0.30
2018-12-14T02:34:43.381Z,0.30
2018-12-14T02:37:11.724Z,0.30
2018-12-14T02:39:40.010Z,0.20
2018-12-14T02:42:08.282Z,0.30
2018-12-14T02:44:36.782Z,0.30
2018-12-14T02:47:05.133Z,0.30
2018-12-14T02:49:33.506Z,0.30
2018-12-14T02:52:01.934Z,0.20
2018-12-14T02:54:30.099Z,0.30
2018-12-14T02:56:58.219Z,0.30
2018-12-14T02:59:27.555Z,0.30
2018-12-14T03:02:03.920Z,0.30
2018-12-14T03:04:32.080Z,0.40
2018-12-14T03:07:00.359Z,0.40
2018-12-14T03:09:28.495Z,0.40
2018-12-14T03:11:56.657Z,0.40
2018-12-14T03:14:25.014Z,0.40
2018-12-14T03:16:53.252Z,0.30
2018-12-14T03:19:21.577Z,0.30
2018-12-14T03:21:50.355Z,0.30
2018-12-14T03:24:18.840Z,0.30
2018-12-14T03:26:47.410Z,0.30
2018-12-14T03:29:15.818Z,0.30
2018-12-14T03:31:44.068Z,0.30
2018-12-14T03:34:12.485Z,0.40
2018-12-14T03:36:40.744Z,0.30
2018-12-14T03:39:09.043Z,0.30
2018-12-14T03:41:37.559Z,0.30
2018-12-14T03:44:06.005Z,0.30
2018-12-14T03:46:34.403Z,0.30
2018-12-14T03:49:02.788Z,0.30
2018-12-14T03:51:31.023Z,0.40
2018-12-14T03:53:59.932Z,0.30
2018-12-14T03:56:28.144Z,0.30
2018-12-14T03:58:56.991Z,0.30
2018-12-14T04:01:25.477Z,0.30
2018-12-14T04:03:53.578Z,0.30
2018-12-14T04:06:21.729Z,0.30
2018-12-14T04:08:49.894Z,0.30
2018-12-14T04:11:18.178Z,0.20
2018-12-14T04:13:46.530Z,0.30
2018-12-14T04:16:15.862Z,0.30
2018-12-14T04:18:44.534Z,0.30
2018-12-14T04:21:12.992Z,0.30
2018-12-14T04:23:41.326Z,0.30
2018-12-14T04:26:09.501Z,0.30
2018-12-14T04:28:38.121Z,0.20
2018-12-14T04:31:06.435Z,0.20
2018-12-14T04:33:35.504Z,0.20
2018-12-14T04:36:03.904Z,0.20
2018-12-14T04:38:32.054Z,0.20
2018-12-14T04:41:00.484Z,0.20
2018-12-14T04:43:28.969Z,0.20
2018-12-14T04:45:57.300Z,0.20
2018-12-14T04:48:25.996Z,0.20
2018-12-14T04:50:54.193Z,0.20
2018-12-14T04:53:22.385Z,0.10
2018-12-14T04:55:50.672Z,0.10
2018-12-14T04:58:18.942Z,0.10
2018-12-14T05:00:47.281Z,0.10
2018-12-14T05:03:15.689Z,0.10
2018-12-14T05:05:43.857Z,0.10
2018-12-14T05:08:12.050Z,0.10
2018-12-14T05:10:40.594Z,0.10
2018-12-14T05:13:09.166Z,0.20
2018-12-14T05:15:37.495Z,0.10
2018-12-14T05:18:05.967Z,0.10
2018-12-14T05:20:34.120Z,0.10
2018-12-14T05:23:02.289Z,0.10
2018-12-14T05:25:30.445Z,0.20
2018-12-14T05:27:58.631Z,0.20
2018-12-14T05:30:26.810Z,0.20
2018-12-14T05:32:55.313Z,0.20
2018-12-14T05:35:23.443Z,0.20
2018-12-14T05:37:51.936Z,0.20
2018-12-14T05:40:20.135Z,0.10
2018-12-14T05:42:48.467Z,0.20
2018-12-14T05:45:16.853Z,0.20
2018-12-14T05:47:45.442Z,0.20
2018-12-14T05:50:14.036Z,0.20
2018-12-14T05:52:42.292Z,0.20
2018-12-14T05:55:10.780Z,0.20
2018-12-14T05:57:38.941Z,0.20
2018-12-14T06:00:10.365Z,0.20
2018-12-14T06:02:38.561Z,0.20
2018-12-14T06:05:07.007Z,0.20
2018-12-14T06:07:35.581Z,0.20
2018-12-14T06:10:05.419Z,0.20
2018-12-14T06:12:33.966Z,0.20
2018-12-14T06:15:02.150Z,0.20
2018-12-14T06:17:30.348Z,0.20
2018-12-14T06:19:58.640Z,0.20
2018-12-14T06:22:27.351Z,0.20
2018-12-14T06:24:55.718Z,0.20
2018-12-14T06:27:24.005Z,0.20
2018-12-14T06:29:52.302Z,0.20
2018-12-14T06:32:21.452Z,0.20
2018-12-14T06:34:50.966Z,0.20
2018-12-14T06:37:19.881Z,0.20
2018-12-14T06:39:48.284Z,0.20
2018-12-14T06:42:16.959Z,0.20
2018-12-14T06:44:45.247Z,0.20
2018-12-14T06:47:14.875Z,0.20
2018-12-14T06:49:43.248Z,0.20
2018-12-14T06:52:14.789Z,0.20
2018-12-14T06:54:43.156Z,0.20
2018-12-14T06:57:11.809Z,0.20
2018-12-14T06:59:40.531Z,0.20
2018-12-14T07:02:08.970Z,0.20
2018-12-14T07:04:37.120Z,0.20
2018-12-14T07:07:06.000Z,0.20
2018-12-14T07:09:34.506Z,0.20
2018-12-14T07:12:02.913Z,0.20
2018-12-14T07:14:31.069Z,0.20
2018-12-14T07:16:59.882Z,0.10
2018-12-14T07:19:28.705Z,0.10
2018-12-14T07:21:57.445Z,0.10
2018-12-14T07:24:25.971Z,0.10
2018-12-14T07:26:54.774Z,0.10
2018-12-14T07:29:23.190Z,0.10
2018-12-14T07:31:51.647Z,0.10
2018-12-14T07:34:20.099Z,0.10
2018-12-14T07:36:48.262Z,0.10
2018-12-14T07:39:16.375Z,0.10
2018-12-14T07:41:44.508Z,0.10
2018-12-14T07:44:12.759Z,0.10
2018-12-14T07:46:41.020Z,0.10
2018-12-14T07:49:09.152Z,0.10
2018-12-14T07:51:37.584Z,0.10
2018-12-14T07:54:06.108Z,0.10
2018-12-14T07:56:34.301Z,0.10
2018-12-14T07:59:02.652Z,0.10
2018-12-14T08:01:31.252Z,0.10
2018-12-14T08:03:59.653Z,0.10
2018-12-14T08:06:27.814Z,0.10
2018-12-14T08:08:56.140Z,1.60
2018-12-14T08:11:25.311Z,0.10
2018-12-14T08:13:53.785Z,0.10
2018-12-14T08:16:22.050Z,0.10
2018-12-14T08:18:50.291Z,0.10
2018-12-14T08:21:18.902Z,0.20
2018-12-14T08:23:47.170Z,0.10
2018-12-14T08:26:15.482Z,0.10
2018-12-14T08:28:44.131Z,0.10
2018-12-14T08:31:12.280Z,0.10
2018-12-14T08:33:40.784Z,0.10
2018-12-14T08:36:09.122Z,0.20
2018-12-14T08:38:37.355Z,0.20
2018-12-14T08:41:05.692Z,0.20
2018-12-14T08:43:34.180Z,0.20
2018-12-14T08:46:02.484Z,0.20
2018-12-14T08:48:31.172Z,0.20
2018-12-14T08:50:59.545Z,0.20
2018-12-14T08:53:28.397Z,0.20
2018-12-14T08:55:57.161Z,0.20
2018-12-14T08:58:26.243Z,0.20
2018-12-14T09:00:54.413Z,0.10
2018-12-14T09:03:22.982Z,0.20
2018-12-14T09:05:51.580Z,0.20
2018-12-14T09:08:19.831Z,0.20
2018-12-14T09:10:48.443Z,0.20
2018-12-14T09:13:16.790Z,0.20
2018-12-14T09:15:45.557Z,0.20
2018-12-14T09:18:13.903Z,0.20
2018-12-14T09:20:42.010Z,0.30
2018-12-14T09:23:10.836Z,0.30
2018-12-14T09:25:39.129Z,0.30
2018-12-14T09:28:07.291Z,0.30
2018-12-14T09:30:35.549Z,0.30
2018-12-14T09:33:03.708Z,0.30
2018-12-14T09:35:31.841Z,0.30
2018-12-14T09:38:00.856Z,0.30
2018-12-14T09:40:29.366Z,0.30
2018-12-14T09:42:57.488Z,0.20
2018-12-14T09:45:25.686Z,0.20
2018-12-14T09:47:53.930Z,0.30
2018-12-14T09:50:22.225Z,0.30
2018-12-14T09:52:50.754Z,0.30
2018-12-14T09:55:18.926Z,0.30
2018-12-14T09:57:47.306Z,0.40
2018-12-14T10:00:15.664Z,0.30
2018-12-14T10:02:43.788Z,0.30
2018-12-14T10:05:12.087Z,0.40
2018-12-14T10:07:46.648Z,0.40
2018-12-14T10:10:10.723Z,0.40
2018-12-14T10:12:39.493Z,0.40
2018-12-14T10:15:08.187Z,0.40
2018-12-14T10:17:36.591Z,0.30
2018-12-14T10:20:07.535Z,0.30
2018-12-14T10:22:41.391Z,0.40
2018-12-14T10:25:06.124Z,0.40
2018-12-14T10:27:34.842Z,0.30
2018-12-14T10:30:03.385Z,0.30
2018-12-14T10:32:31.561Z,0.30
2018-12-14T10:34:59.719Z,0.30
2018-12-14T10:37:27.958Z,0.40
2018-12-14T10:39:56.645Z,0.40
2018-12-14T10:42:24.852Z,0.40
2018-12-14T10:44:53.201Z,0.40
2018-12-14T10:50:14.781Z,0.40
2018-12-14T10:52:43.129Z,0.30
2018-12-14T10:55:11.364Z,0.40
2018-12-14T10:57:40.137Z,0.40
2018-12-14T11:00:20.238Z,0.40
2018-12-14T11:02:49.163Z,0.40
2018-12-14T11:05:17.331Z,0.50
2018-12-14T11:07:46.290Z,0.50
2018-12-14T11:10:14.826Z,0.40
2018-12-14T11:12:43.179Z,0.40
2018-12-14T11:15:11.503Z,0.40
2018-12-14T11:17:39.915Z,0.50
2018-12-14T11:20:09.951Z,0.50
2018-12-14T11:22:38.318Z,0.50
2018-12-14T11:25:07.852Z,0.50
2018-12-14T11:27:36.518Z,0.40
2018-12-14T11:30:06.696Z,0.40
2018-12-14T11:32:35.498Z,0.50
2018-12-14T11:35:04.486Z,0.50
2018-12-14T11:37:32.972Z,0.50
2018-12-14T11:40:01.342Z,0.50
2018-12-14T11:42:29.640Z,0.50
2018-12-14T11:44:57.829Z,0.50
2018-12-14T11:47:26.019Z,0.50
2018-12-14T11:49:54.537Z,0.40
2018-12-14T11:52:23.678Z,0.40
2018-12-14T11:54:52.945Z,0.40
2018-12-14T11:57:21.608Z,0.40
2018-12-14T11:59:50.533Z,0.30
2018-12-14T12:02:19.457Z,0.40
2018-12-14T12:04:48.459Z,0.40
2018-12-14T12:07:23.108Z,0.40
2018-12-14T12:09:53.956Z,0.40
2018-12-14T12:12:24.307Z,0.40
2018-12-14T12:14:53.800Z,0.40
2018-12-14T12:17:23.359Z,0.30
2018-12-14T12:19:51.961Z,0.40
2018-12-14T12:22:21.300Z,0.40
2018-12-14T12:24:50.204Z,0.40
2018-12-14T12:27:19.764Z,0.40
2018-12-14T12:29:48.587Z,0.50
2018-12-14T12:32:17.574Z,0.50
2018-12-14T12:34:46.757Z,0.40
2018-12-14T12:37:16.144Z,0.40
2018-12-14T12:39:45.022Z,0.40
2018-12-14T12:42:13.828Z,0.40
2018-12-14T12:44:42.372Z,0.40
2018-12-14T12:47:10.520Z,0.30
2018-12-14T12:49:38.732Z,0.30
2018-12-14T12:52:07.309Z,0.40
2018-12-14T12:54:35.739Z,0.40
2018-12-14T12:57:04.177Z,0.40
2018-12-14T12:59:33.862Z,0.40
2018-12-14T13:02:02.507Z,0.50
2018-12-14T13:04:31.501Z,0.50
2018-12-14T13:06:59.750Z,0.50
2018-12-14T13:09:28.543Z,0.50
2018-12-14T13:11:57.668Z,0.40
2018-12-14T13:14:26.543Z,0.40
2018-12-14T13:16:55.330Z,0.50
2018-12-14T13:19:23.875Z,0.40
2018-12-14T13:21:53.552Z,0.40
2018-12-14T13:24:22.556Z,0.40
2018-12-14T13:26:51.127Z,0.40
2018-12-14T13:29:19.511Z,0.40
2018-12-14T13:31:48.520Z,0.40
2018-12-14T13:34:17.663Z,0.40
2018-12-14T13:36:46.277Z,0.40
2018-12-14T13:39:14.823Z,1.70
2018-12-14T13:41:43.244Z,0.40
2018-12-14T13:44:11.394Z,0.40
2018-12-14T13:46:39.549Z,0.40
2018-12-14T13:49:08.693Z,0.40
2018-12-14T13:51:37.133Z,0.40
2018-12-14T13:54:05.385Z,0.30
2018-12-14T13:56:34.337Z,0.30
2018-12-14T13:59:02.743Z,0.40
2018-12-14T14:01:31.182Z,0.40
2018-12-14T14:04:00.059Z,0.40
2018-12-14T14:06:28.421Z,0.40
2018-12-14T14:08:56.999Z,0.40
2018-12-14T14:11:25.993Z,0.30
2018-12-14T14:13:54.460Z,0.30
2018-12-14T14:16:22.835Z,0.30
2018-12-14T14:18:51.302Z,0.30
2018-12-14T14:21:19.726Z,0.30
2018-12-14T14:23:47.979Z,0.20
2018-12-14T14:26:16.164Z,0.30
2018-12-14T14:28:44.659Z,0.30
2018-12-14T14:31:12.917Z,0.20
2018-12-14T14:33:41.026Z,0.20
2018-12-14T14:36:09.201Z,0.20
2018-12-14T14:38:37.836Z,0.20
2018-12-14T14:41:05.958Z,0.20
2018-12-14T14:43:34.394Z,0.20
2018-12-14T14:46:03.450Z,0.20
2018-12-14T14:48:31.878Z,0.20
2018-12-14T14:51:00.416Z,0.20
2018-12-14T14:53:28.861Z,0.20
2018-12-14T14:55:57.242Z,0.10
2018-12-14T14:58:30.594Z,0.10
2018-12-14T15:00:59.098Z,0.10
2018-12-14T15:03:28.310Z,0.10
2018-12-14T15:05:57.459Z,0.00
2018-12-14T15:08:26.287Z,0.00
2018-12-14T15:10:54.851Z,0.00
2018-12-14T15:13:25.938Z,0.00
2018-12-14T15:15:54.380Z,0.00
2018-12-14T15:18:23.691Z,0.00
2018-12-14T15:20:52.031Z,0.00
2018-12-14T15:23:23.748Z,0.00
2018-12-14T15:25:51.952Z,0.00
2018-12-14T15:28:20.451Z,-0.10
2018-12-14T15:30:48.649Z,-0.10
2018-12-14T15:33:16.868Z,-0.10
2018-12-14T15:35:45.033Z,-0.10
2018-12-14T15:38:13.504Z,-0.10
2018-12-14T15:40:41.692Z,-0.10
2018-12-14T15:43:09.920Z,-0.10
2018-12-14T15:45:38.163Z,-0.10
2018-12-14T15:48:06.624Z,-0.10
2018-12-14T15:50:35.126Z,0.00
2018-12-14T15:53:03.637Z,0.10
2018-12-14T15:55:32.481Z,0.00
2018-12-14T15:58:01.297Z,0.00
2018-12-14T16:00:30.432Z,0.00
2018-12-14T16:02:59.480Z,0.00
2018-12-14T16:05:29.014Z,-0.10
2018-12-14T16:07:58.239Z,0.00
2018-12-14T16:10:26.897Z,0.00
2018-12-14T16:12:55.274Z,0.10
2018-12-14T16:15:24.086Z,0.00
2018-12-14T16:17:52.960Z,0.00
2018-12-14T16:20:21.328Z,-0.10
2018-12-14T16:22:49.524Z,-0.10
2018-12-14T16:25:18.409Z,-0.10
2018-12-14T16:27:47.140Z,-0.10
2018-12-14T16:30:15.935Z,-0.10
2018-12-14T16:32:44.313Z,-0.10
2018-12-14T16:35:12.711Z,-0.10
2018-12-14T16:37:41.306Z,-0.10
2018-12-14T16:40:09.906Z,-0.20
2018-12-14T16:42:38.406Z,-0.20
2018-12-14T16:45:07.603Z,-0.20
2018-12-14T16:47:36.113Z,-0.20
2018-12-14T16:50:05.360Z,-0.20
2018-12-14T16:52:33.918Z,-0.10
2018-12-14T16:55:02.330Z,-0.10
2018-12-14T16:57:31.281Z,-0.10
2018-12-14T16:59:59.846Z,-0.10
2018-12-14T17:02:28.407Z,-0.10
2018-12-14T17:04:57.659Z,-0.10
2018-12-14T17:07:26.064Z,-0.20
2018-12-14T17:09:54.342Z,-0.10
2018-12-14T17:12:22.653Z,-0.10
2018-12-14T17:14:51.210Z,-0.10
2018-12-14T17:17:19.841Z,-0.10
2018-12-14T17:19:48.286Z,-0.20
2018-12-14T17:22:17.227Z,-0.20
2018-12-14T17:24:45.958Z,-0.20
2018-12-14T17:27:14.165Z,-0.20
2018-12-14T17:29:42.674Z,-0.20
2018-12-14T17:32:11.174Z,-0.20
2018-12-14T17:34:39.641Z,-0.20
2018-12-14T17:37:08.648Z,-0.10
2018-12-14T17:39:37.730Z,-0.10
2018-12-14T17:42:06.474Z,-0.10
2018-12-14T17:44:35.431Z,-0.20
2018-12-14T17:47:03.802Z,-0.10
2018-12-14T17:49:32.523Z,-0.10
2018-12-14T17:52:01.493Z,-0.20
2018-12-14T17:54:30.202Z,-0.20
2018-12-14T17:56:58.463Z,-0.20
2018-12-14T17:59:26.979Z,-0.10
2018-12-14T18:01:55.464Z,0.70
2018-12-14T18:04:24.104Z,-0.20
2018-12-14T18:06:52.655Z,-0.20
2018-12-14T18:09:22.427Z,-0.20
2018-12-14T18:11:51.455Z,-0.20
2018-12-14T18:14:20.477Z,-0.30
2018-12-14T18:16:49.482Z,-0.20
2018-12-14T18:19:18.425Z,-0.20
2018-12-14T18:21:47.323Z,-0.30
2018-12-14T18:24:15.905Z,-0.30
2018-12-14T18:26:44.363Z,-0.30
2018-12-14T18:29:12.630Z,-0.30
2018-12-14T18:31:41.340Z,-0.20
2018-12-14T18:34:10.713Z,-0.20
2018-12-14T18:36:39.312Z,-0.30
2018-12-14T18:39:07.933Z,-0.30
2018-12-14T18:41:36.899Z,-0.20
2018-12-14T18:44:05.929Z,-0.20
2018-12-14T18:46:34.629Z,-0.30
2018-12-14T18:49:03.918Z,-0.30
2018-12-14T18:51:32.476Z,-0.30
2018-12-14T18:54:00.578Z,-0.30
2018-12-14T18:56:29.396Z,-0.30
2018-12-14T18:58:57.985Z,-0.40
2018-12-14T19:01:26.688Z,-0.40
2018-12-14T19:03:57.102Z,-0.40
2018-12-14T19:06:25.872Z,-0.40
2018-12-14T19:08:54.364Z,-0.30
2018-12-14T19:11:22.776Z,-0.30
2018-12-14T19:13:51.572Z,-0.30
2018-12-14T19:16:21.159Z,-0.30
2018-12-14T19:18:50.170Z,-0.30
2018-12-14T19:21:19.157Z,-0.30
2018-12-14T19:23:47.458Z,-0.20
2018-12-14T19:26:15.765Z,-0.30
2018-12-14T19:28:45.391Z,-0.30
2018-12-14T19:31:14.182Z,-0.30
2018-12-14T19:33:42.901Z,-0.30
2018-12-14T19:36:12.202Z,-0.30
2018-12-14T19:38:40.770Z,-0.30
2018-12-14T19:41:09.824Z,-0.30
2018-12-14T19:43:38.590Z,-0.30
2018-12-14T19:46:07.602Z,-0.20
2018-12-14T19:48:36.303Z,-0.20
2018-12-14T19:51:05.090Z,-0.20
2018-12-14T19:53:33.610Z,-0.30
2018-12-14T19:56:02.731Z,-0.30
2018-12-14T19:58:32.475Z,-0.40
2018-12-14T20:01:01.185Z,-0.40
2018-12-14T20:03:30.010Z,-0.30
2018-12-14T20:05:58.812Z,-0.30
2018-12-14T20:08:27.692Z,-0.20
2018-12-14T20:10:56.697Z,-0.30
2018-12-14T20:13:25.612Z,-0.30
2018-12-14T20:15:57.380Z,-0.30
2018-12-14T20:18:27.620Z,0.80
2018-12-14T20:20:57.373Z,-0.30
2018-12-14T20:23:26.272Z,-0.30
2018-12-14T20:25:55.730Z,-0.40
2018-12-14T20:28:25.217Z,-0.40
2018-12-14T20:30:54.311Z,-0.50
2018-12-14T20:33:26.542Z,-0.50
2018-12-14T20:35:56.014Z,-0.50
2018-12-14T20:38:25.229Z,-0.50
2018-12-14T20:40:54.262Z,-0.40
2018-12-14T20:43:22.810Z,-0.40
2018-12-14T20:45:51.659Z,-0.40
2018-12-14T20:48:20.423Z,-0.50
2018-12-14T20:50:49.333Z,-0.50
2018-12-14T20:53:17.916Z,-0.40
2018-12-14T20:55:47.128Z,-0.40
2018-12-14T20:58:15.714Z,-0.20
2018-12-14T21:00:43.981Z,-0.40
2018-12-14T21:03:12.329Z,-0.40
2018-12-14T21:05:40.524Z,-0.40
2018-12-14T21:08:08.772Z,-0.40
2018-12-14T21:10:36.920Z,-0.40
2018-12-14T21:13:05.380Z,-0.50
2018-12-14T21:15:34.087Z,-0.50
2018-12-14T21:18:02.523Z,-0.40
2018-12-14T21:20:30.785Z,-0.40
2018-12-14T21:22:59.387Z,-0.40
2018-12-14T21:25:27.944Z,-0.40
2018-12-14T21:27:58.090Z,-0.40
2018-12-14T21:30:28.651Z,-0.40
2018-12-14T21:32:57.098Z,-0.40
2018-12-14T21:35:25.618Z,-0.50
2018-12-14T21:37:53.889Z,-0.40
2018-12-14T21:40:22.149Z,-0.50
2018-12-14T21:42:50.809Z,-0.40
2018-12-14T21:45:19.590Z,-0.50
2018-12-14T21:47:48.452Z,-0.50
2018-12-14T21:50:18.664Z,-0.50
2018-12-14T21:52:47.663Z,-0.50
2018-12-14T21:55:16.631Z,-0.60
2018-12-14T21:57:45.974Z,-0.50
2018-12-14T22:00:15.428Z,-0.40
2018-12-14T22:02:44.312Z,-0.50
2018-12-14T22:05:17.320Z,-0.40
2018-12-14T22:07:46.117Z,-0.40
2018-12-14T22:10:14.742Z,-0.50
2018-12-14T22:12:45.256Z,-0.50
2018-12-14T22:15:13.439Z,-0.50
2018-12-14T22:17:42.141Z,-0.50
2018-12-14T22:20:10.995Z,-0.50
2018-12-14T22:22:39.710Z,-0.50
2018-12-14T22:25:08.550Z,-0.50
2018-12-14T22:27:37.134Z,-0.50
2018-12-14T22:30:06.608Z,-0.50
2018-12-14T22:32:35.361Z,-0.50
2018-12-14T22:35:04.465Z,-0.50
2018-12-14T22:37:33.013Z,-0.60
2018-12-14T22:40:02.072Z,-0.50
2018-12-14T22:42:30.932Z,-0.60
2018-12-14T22:44:59.630Z,-0.50
2018-12-14T22:47:28.443Z,-0.50
2018-12-14T22:49:57.661Z,-0.50
2018-12-14T22:52:26.350Z,-0.50
2018-12-14T22:54:55.322Z,-0.50
2018-12-14T22:57:24.300Z,-0.50
2018-12-14T22:59:52.869Z,-0.50
2018-12-14T23:02:21.291Z,-0.50
2018-12-14T23:04:50.292Z,-0.50
2018-12-14T23:07:23.682Z,-0.50
2018-12-14T23:09:52.320Z,-0.50
2018-12-14T23:12:22.976Z,-0.50
2018-12-14T23:14:53.413Z,-0.50
2018-12-14T23:17:23.611Z,-0.50
2018-12-14T23:19:53.759Z,-0.50
2018-12-14T23:22:24.056Z,-0.50
2018-12-14T23:24:54.369Z,-0.50
2018-12-14T23:27:24.809Z,-0.50
2018-12-14T23:29:55.153Z,-0.50
2018-12-14T23:32:25.158Z,-0.50
2018-12-14T23:34:55.846Z,-0.50
2018-12-14T23:37:25.652Z,-0.60
2018-12-14T23:39:55.641Z,-0.50
2018-12-14T23:42:25.223Z,-0.60
2018-12-14T23:44:55.310Z,-0.50
2018-12-14T23:47:26.853Z,-0.60
2018-12-14T23:49:57.080Z,-0.50
2018-12-14T23:52:27.079Z,-0.50
2018-12-14T23:54:56.643Z,-0.40
2018-12-14T23:57:26.076Z,-0.50
2018-12-14T23:59:55.615Z,-0.50
